• Join FlightAware (Why Join?)
  • Login
  • US Flag 
07:22PM EDT


 

Airport Tracker/Info


-or-


 

Live Flight TrackerFlight Track Log ✈ N849WM ✈ 04-May-2013 ✈ KHWO - KCRG

Flight Track Log - Related Links

Times and Time Zones

All times are in EDT time to prevent confusion due to time zone crossing. See the N849WM flight status page for this flight to view local times or setup timezone preferences in your user account.

Time Position Orientation Groundspeed Altitude Reporting Facility
EDT Latitude Longitude Course Direction KTS MPH feet Rate Location/Type
01:14PM 25.9922 -80.2822 256° West 110 127 1,400  Level Miami Center
01:15PM 25.9956 -80.3194 276° West 114 131 2,600 1,020 Climbing Miami Center
01:16PM 26.0031 -80.3542 284° West 112 129 3,700 660 Climbing Miami Center
01:17PM 26.0231 -80.3872 304° West 141 162 4,000 480 Climbing Miami Center
01:18PM 26.0453 -80.4225 305° West 142 163 4,700 480 Climbing Miami Center
01:19PM 26.0806 -80.4353 342° North 156 180 5,000 120 Climbing Miami Center
01:20PM 26.1286 -80.4367 359° North 163 188 5,000 180 Level Miami Center
01:21PM 26.1722 -80.4381 358° North 159 183 5,400 600 Climbing Miami Center
01:22PM 26.2119 -80.4392 359° North 132 152 6,300 780 Climbing Miami Center
01:23PM 26.2475 -80.4403 358° North 126 145 7,000 300 Climbing Miami Center
01:24PM 26.2914 -80.4322 North 168 193 7,000  Level Miami Center
01:26PM 26.3439 -80.4458 347° North  Level Estimated
01:33PM 26.6685 -80.5297 347° North  Level Estimated
01:34PM 26.7149 -80.5417 347° North  Level Estimated
01:35PM 26.7612 -80.5537 347° North  Level Estimated
01:36PM 26.8076 -80.5658 347° North  Level Estimated
01:37PM 26.8539 -80.5778 347° North  Level Estimated
01:38PM 26.9003 -80.5899 347° North  Level Estimated
01:38PM 26.9125 -80.4069 347° North 163 188 7,400  Level Miami Center
01:39PM 26.9467 -80.6019 347° North  Level Estimated
01:39PM 26.9542 -80.4106 356° North 152 175 7,800  Level Miami Center
01:40PM 26.9930 -80.6140 347° North  Level Estimated
01:40PM 26.9978 -80.4164 353° North 142 163 8,300  Level Miami Center
01:41PM 27.0394 -80.6261 347° North  Level Estimated
01:41PM 27.0372 -80.4225 352° North 142 163 8,800  Level Miami Center
01:42PM 27.0857 -80.6382 347° North  Level Estimated
01:42PM 27.0747 -80.4258 355° North 142 163 8,900  Level Miami Center
01:43PM 27.1321 -80.6503 347° North  Level Estimated
01:43PM 27.1206 -80.4294 356° North 148 170 8,900  Level Miami Center
01:44PM 27.1706 -80.4358 354° North 159 183 8,900  Level Miami Center
01:45PM 27.2183 -80.4419 354° North 164 189 8,900  Level Miami Center
01:46PM 27.2644 -80.4458 356° North 164 189 8,900  Level Miami Center
01:47PM 27.3103 -80.4494 356° North 164 189 8,900  Level Miami Center
01:48PM 27.3561 -80.4533 356° North 164 189 8,900  Level Miami Center
01:49PM 27.4103 -80.4572 356° North 164 189 8,900  Level Miami Center
01:50PM 27.4581 -80.4611 356° North 169 194 8,900  Level Miami Center
01:51PM 27.5019 -80.4625 358° North 169 194 8,900  Level Miami Center
01:52PM 27.5500 -80.4639 359° North 169 194 8,900  Level Miami Center
01:53PM 27.6019 -80.4681 356° North 169 194 8,900  Level Miami Center
01:54PM 27.6475 -80.4789 348° North 169 194 8,900  Level Miami Center
01:55PM 27.6911 -80.4964 340° North 169 194 8,900  Level Miami Center
01:56PM 27.7303 -80.5094 344° North 163 188 8,900  Level Miami Center
01:57PM 27.7739 -80.5250 342° North 163 188 8,900  Level Miami Center
02:00PM 27.8833 -80.5500 349° North 168 193 8,900  Level Orlando TRACON
02:01PM 27.9333 -80.5667 344° North 172 198 8,900  Level Orlando TRACON
02:02PM 27.9667 -80.5833 336° Northwest 167 192 8,900  Level Orlando TRACON
02:03PM 28.0167 -80.6000 344° North 172 198 8,900  Level Orlando TRACON
02:04PM 28.0667 -80.6167 344° North 171 197 8,900  Level Orlando TRACON
02:05PM 28.1167 -80.6333 344° North 166 191 8,900  Level Orlando TRACON
02:06PM 28.1500 -80.6500 336° Northwest 164 189 8,900  Level Orlando TRACON
02:07PM 28.2000 -80.6667 344° North 167 192 9,000  Climbing Orlando TRACON
02:08PM 28.2333 -80.6833 336° Northwest 163 188 8,900 -60 Descending Orlando TRACON
02:09PM 28.2833 -80.7000 344° North 164 189 8,900  Level Orlando TRACON
02:10PM 28.3167 -80.7167 336° Northwest 163 188 8,900  Level Orlando TRACON
02:11PM 28.3667 -80.7333 344° North 162 186 8,900  Level Orlando TRACON
02:12PM 28.4167 -80.7500 344° North 162 186 8,900  Level Orlando TRACON
02:13PM 28.4500 -80.7667 336° Northwest 163 188 8,900  Level Orlando TRACON
02:14PM 28.5000 -80.7833 344° North 164 189 9,000  Climbing Orlando TRACON
02:15PM 28.5500 -80.8167 330° Northwest 164 189 8,900 -60 Descending Orlando TRACON
02:16PM 28.5833 -80.8167 360° North 162 186 8,900  Level Orlando TRACON
02:17PM 28.6333 -80.8333 344° North 163 188 8,900  Level Orlando TRACON
02:18PM 28.6667 -80.8500 336° Northwest 162 186 8,900  Level Orlando TRACON
02:20PM 28.7647 -80.9008 336° Northwest 160 184 8,900  Level Jacksonville Center
02:21PM 28.8047 -80.9167 341° North 162 186 8,900  Level Jacksonville Center
02:22PM 28.8486 -80.9322 343° North 164 189 8,900  Level Jacksonville Center
02:23PM 28.8992 -80.9525 341° North 164 189 8,900  Level Jacksonville Center
02:24PM 28.9453 -80.9731 339° North 163 188 8,900  Level Jacksonville Center
02:25PM 28.9872 -80.9889 342° North 163 188 8,900  Level Jacksonville Center
02:26PM 29.0356 -81.0069 342° North 164 189 8,900  Level Jacksonville Center
02:27PM 29.0775 -81.0250 339° North 165 190 8,900  Level Jacksonville Center
02:28PM 29.1194 -81.0433 339° North 168 193 8,900  Level Jacksonville Center
02:29PM 29.1617 -81.0592 342° North 163 188 8,900  Level Jacksonville Center
02:30PM 29.1953 -81.0753 337° Northwest 123 142 8,900  Level Jacksonville Center
02:31PM 29.2308 -81.0936 336° Northwest 147 169 8,900  Level Jacksonville Center
02:32PM 29.2689 -81.1192 330° Northwest 158 182 8,900  Level Jacksonville Center
02:33PM 29.3067 -81.1328 343° North 164 189 8,900  Level Jacksonville Center
02:34PM 29.3506 -81.1511 340° North 170 196 8,900  Level Jacksonville Center
02:35PM 29.3989 -81.1692 342° North 168 193 8,900  Level Jacksonville Center
02:36PM 29.4450 -81.1850 343° North 169 194 8,900  Level Jacksonville Center
02:37PM 29.4808 -81.1989 341° North 170 196 8,900 -60 Level Jacksonville Center
02:38PM 29.5311 -81.2194 340° North 168 193 8,800 -240 Descending Jacksonville Center
02:39PM 29.5731 -81.2353 342° North 173 199 8,500 -480 Descending Jacksonville Center
02:40PM 29.6297 -81.2536 344° North 168 193 7,800 -480 Descending Jacksonville Center
02:41PM 29.6781 -81.2719 342° North 171 197 7,400 -420 Descending Jacksonville Center
02:42PM 29.7178 -81.2856 343° North 175 201 7,000 -480 Descending Jacksonville Center
02:43PM 29.7700 -81.2919 354° North 178 205 6,500 -540 Descending Jacksonville Center
02:44PM 29.8203 -81.2983 354° North 182 209 6,000 -540 Descending Jacksonville Center
02:45PM 29.8725 -81.3069 352° North 184 212 5,500 -480 Descending Jacksonville Center
02:47PM 29.9289 -81.3131 355° North 182 209 5,000 -240 Descending Jacksonville Center
02:48PM 29.9750 -81.3219 351° North 171 197 5,000 -60 Level Jacksonville Center
02:49PM 30.0231 -81.3283 353° North 164 189 4,900 -480 Descending Jacksonville Center
02:50PM 30.0733 -81.3347 354° North 180 207 4,100 -840 Descending Jacksonville Center
02:50PM 30.1214 -81.3414 353° North 187 215 3,300 -840 Descending Jacksonville Center
02:52PM 30.1736 -81.3500 352° North 188 216 2,500 -660 Descending Jacksonville Center
02:53PM 30.2200 -81.3806 330° Northwest 187 215 2,000 -300 Descending Jacksonville Center
02:54PM 30.2475 -81.4114 316° Northwest 144 166 2,000 -180 Level Jacksonville Center
02:55PM 30.2750 -81.4422 316° Northwest 124 143 1,700 -600 Descending Jacksonville Center
02:56PM 30.3003 -81.4706 316° Northwest 136 157 900 -540 Descending Jacksonville Center
02:57PM 30.3072 -81.5139 281° West 127 146 700 -360 Descending Jacksonville Center
02:58PM 30.3197 -81.5331 307° West 87 100 200 -540 Descending Jacksonville Center
03:00PM 30.3363 -81.5144 341° North  Level Estimated